sensor_id;sensor_type;location;lat;lon;timestamp;P1;durP1;ratioP1;P2;durP2;ratioP2
44165;SDS011;30476;53.468;9.826;2023-07-16T00:00:11;0.60;;;0.60;;
44165;SDS011;30476;53.468;9.826;2023-07-16T00:02:37;0.63;;;0.63;;
44165;SDS011;30476;53.468;9.826;2023-07-16T00:05:04;0.70;;;0.70;;
44165;SDS011;30476;53.468;9.826;2023-07-16T00:07:31;0.60;;;0.60;;
44165;SDS011;30476;53.468;9.826;2023-07-16T00:09:56;2.40;;;0.67;;
44165;SDS011;30476;53.468;9.826;2023-07-16T00:12:22;1.87;;;0.80;;
44165;SDS011;30476;53.468;9.826;2023-07-16T00:14:48;0.73;;;0.73;;
44165;SDS011;30476;53.468;9.826;2023-07-16T00:17:14;0.67;;;0.67;;
44165;SDS011;30476;53.468;9.826;2023-07-16T00:19:39;0.80;;;0.60;;
44165;SDS011;30476;53.468;9.826;2023-07-16T00:22:05;0.60;;;0.60;;
44165;SDS011;30476;53.468;9.826;2023-07-16T00:24:31;0.70;;;0.70;;
44165;SDS011;30476;53.468;9.826;2023-07-16T00:26:57;0.93;;;0.83;;
44165;SDS011;30476;53.468;9.826;2023-07-16T00:29:23;1.00;;;0.90;;
44165;SDS011;30476;53.468;9.826;2023-07-16T00:31:48;0.67;;;0.67;;
44165;SDS011;30476;53.468;9.826;2023-07-16T00:34:14;0.80;;;0.70;;
44165;SDS011;30476;53.468;9.826;2023-07-16T00:36:40;0.77;;;0.77;;
44165;SDS011;30476;53.468;9.826;2023-07-16T00:39:06;0.60;;;0.60;;
44165;SDS011;30476;53.468;9.826;2023-07-16T00:41:31;1.43;;;0.70;;
44165;SDS011;30476;53.468;9.826;2023-07-16T00:43:57;0.97;;;0.87;;
44165;SDS011;30476;53.468;9.826;2023-07-16T00:46:23;0.50;;;0.50;;
44165;SDS011;30476;53.468;9.826;2023-07-16T00:48:49;0.80;;;0.70;;
44165;SDS011;30476;53.468;9.826;2023-07-16T00:51:16;1.47;;;0.70;;
44165;SDS011;30476;53.468;9.826;2023-07-16T00:53:42;0.90;;;0.90;;
44165;SDS011;30476;53.468;9.826;2023-07-16T00:56:09;0.80;;;0.80;;
44165;SDS011;30476;53.468;9.826;2023-07-16T00:58:36;0.63;;;0.63;;
44165;SDS011;30476;53.468;9.826;2023-07-16T01:01:02;0.70;;;0.70;;
44165;SDS011;30476;53.468;9.826;2023-07-16T01:03:28;2.57;;;0.70;;
44165;SDS011;30476;53.468;9.826;2023-07-16T01:08:42;0.77;;;0.77;;
44165;SDS011;30476;53.468;9.826;2023-07-16T01:11:11;0.70;;;0.70;;
44165;SDS011;30476;53.468;9.826;2023-07-16T01:13:37;0.60;;;0.60;;
44165;SDS011;30476;53.468;9.826;2023-07-16T01:16:04;1.43;;;0.90;;
44165;SDS011;30476;53.468;9.826;2023-07-16T01:18:30;1.03;;;0.93;;
44165;SDS011;30476;53.468;9.826;2023-07-16T01:20:56;1.20;;;0.90;;
44165;SDS011;30476;53.468;9.826;2023-07-16T01:23:34;0.67;;;0.60;;
44165;SDS011;30476;53.468;9.826;2023-07-16T01:26:47;0.70;;;0.70;;
44165;SDS011;30476;53.468;9.826;2023-07-16T01:29:31;0.87;;;0.60;;
44165;SDS011;30476;53.468;9.826;2023-07-16T01:32:03;0.50;;;0.50;;
44165;SDS011;30476;53.468;9.826;2023-07-16T01:37:52;0.83;;;0.83;;
44165;SDS011;30476;53.468;9.826;2023-07-16T01:40:18;0.60;;;0.60;;
44165;SDS011;30476;53.468;9.826;2023-07-16T01:42:44;1.63;;;0.70;;
44165;SDS011;30476;53.468;9.826;2023-07-16T01:45:10;2.23;;;0.80;;
44165;SDS011;30476;53.468;9.826;2023-07-16T01:50:31;0.73;;;0.73;;
44165;SDS011;30476;53.468;9.826;2023-07-16T01:52:57;1.13;;;0.67;;
44165;SDS011;30476;53.468;9.826;2023-07-16T01:55:22;0.73;;;0.70;;
44165;SDS011;30476;53.468;9.826;2023-07-16T01:57:48;1.37;;;0.87;;
44165;SDS011;30476;53.468;9.826;2023-07-16T02:00:14;0.67;;;0.63;;
44165;SDS011;30476;53.468;9.826;2023-07-16T02:02:40;0.70;;;0.70;;
44165;SDS011;30476;53.468;9.826;2023-07-16T02:05:06;0.80;;;0.80;;
44165;SDS011;30476;53.468;9.826;2023-07-16T02:07:32;0.77;;;0.77;;
44165;SDS011;30476;53.468;9.826;2023-07-16T02:09:57;0.83;;;0.83;;
44165;SDS011;30476;53.468;9.826;2023-07-16T02:12:23;0.60;;;0.60;;
44165;SDS011;30476;53.468;9.826;2023-07-16T02:14:49;0.67;;;0.67;;
44165;SDS011;30476;53.468;9.826;2023-07-16T02:17:14;1.03;;;0.70;;
44165;SDS011;30476;53.468;9.826;2023-07-16T02:19:40;0.80;;;0.80;;
44165;SDS011;30476;53.468;9.826;2023-07-16T02:22:05;2.73;;;0.60;;
44165;SDS011;30476;53.468;9.826;2023-07-16T02:24:31;1.00;;;0.67;;
44165;SDS011;30476;53.468;9.826;2023-07-16T02:26:57;1.13;;;0.77;;
44165;SDS011;30476;53.468;9.826;2023-07-16T02:29:22;0.80;;;0.63;;
44165;SDS011;30476;53.468;9.826;2023-07-16T02:31:48;0.90;;;0.90;;
44165;SDS011;30476;53.468;9.826;2023-07-16T02:34:14;3.33;;;1.10;;
44165;SDS011;30476;53.468;9.826;2023-07-16T02:36:40;0.60;;;0.60;;
44165;SDS011;30476;53.468;9.826;2023-07-16T02:39:05;1.63;;;0.70;;
44165;SDS011;30476;53.468;9.826;2023-07-16T02:41:31;0.70;;;0.63;;
44165;SDS011;30476;53.468;9.826;2023-07-16T02:44:00;0.80;;;0.80;;
44165;SDS011;30476;53.468;9.826;2023-07-16T02:46:29;0.80;;;0.80;;
44165;SDS011;30476;53.468;9.826;2023-07-16T02:48:55;0.90;;;0.73;;
44165;SDS011;30476;53.468;9.826;2023-07-16T02:51:21;0.60;;;0.60;;
44165;SDS011;30476;53.468;9.826;2023-07-16T02:53:47;0.90;;;0.90;;
44165;SDS011;30476;53.468;9.826;2023-07-16T02:56:13;0.60;;;0.60;;
44165;SDS011;30476;53.468;9.826;2023-07-16T02:58:38;0.90;;;0.90;;
44165;SDS011;30476;53.468;9.826;2023-07-16T03:01:04;1.00;;;0.80;;
44165;SDS011;30476;53.468;9.826;2023-07-16T03:03:30;0.90;;;0.83;;
44165;SDS011;30476;53.468;9.826;2023-07-16T03:05:56;0.80;;;0.80;;
44165;SDS011;30476;53.468;9.826;2023-07-16T03:08:21;0.80;;;0.70;;
44165;SDS011;30476;53.468;9.826;2023-07-16T03:10:48;0.70;;;0.70;;
44165;SDS011;30476;53.468;9.826;2023-07-16T03:13:13;1.90;;;0.80;;
44165;SDS011;30476;53.468;9.826;2023-07-16T03:15:39;0.77;;;0.70;;
44165;SDS011;30476;53.468;9.826;2023-07-16T03:18:05;1.23;;;0.97;;
44165;SDS011;30476;53.468;9.826;2023-07-16T03:20:30;1.20;;;1.00;;
44165;SDS011;30476;53.468;9.826;2023-07-16T03:22:56;1.07;;;1.00;;
44165;SDS011;30476;53.468;9.826;2023-07-16T03:25:22;0.70;;;0.70;;
44165;SDS011;30476;53.468;9.826;2023-07-16T03:27:48;0.60;;;0.60;;
44165;SDS011;30476;53.468;9.826;2023-07-16T03:30:13;0.70;;;0.70;;
44165;SDS011;30476;53.468;9.826;2023-07-16T03:32:39;3.23;;;0.80;;
44165;SDS011;30476;53.468;9.826;2023-07-16T03:35:05;0.80;;;0.80;;
44165;SDS011;30476;53.468;9.826;2023-07-16T03:37:31;1.00;;;0.90;;
44165;SDS011;30476;53.468;9.826;2023-07-16T03:40:01;2.70;;;0.90;;
44165;SDS011;30476;53.468;9.826;2023-07-16T03:42:38;0.80;;;0.80;;
44165;SDS011;30476;53.468;9.826;2023-07-16T03:45:03;0.90;;;0.90;;
44165;SDS011;30476;53.468;9.826;2023-07-16T03:47:30;2.90;;;0.80;;
44165;SDS011;30476;53.468;9.826;2023-07-16T03:49:55;0.90;;;0.90;;
44165;SDS011;30476;53.468;9.826;2023-07-16T03:52:21;1.00;;;0.90;;
44165;SDS011;30476;53.468;9.826;2023-07-16T03:54:47;1.07;;;1.00;;
44165;SDS011;30476;53.468;9.826;2023-07-16T03:57:12;0.70;;;0.60;;
44165;SDS011;30476;53.468;9.826;2023-07-16T03:59:38;1.10;;;0.90;;
44165;SDS011;30476;53.468;9.826;2023-07-16T04:02:04;0.60;;;0.60;;
44165;SDS011;30476;53.468;9.826;2023-07-16T04:04:30;0.63;;;0.63;;
44165;SDS011;30476;53.468;9.826;2023-07-16T04:06:55;1.47;;;0.80;;
44165;SDS011;30476;53.468;9.826;2023-07-16T04:09:21;0.70;;;0.70;;
44165;SDS011;30476;53.468;9.826;2023-07-16T04:11:47;0.77;;;0.70;;
44165;SDS011;30476;53.468;9.826;2023-07-16T04:14:13;1.07;;;0.80;;
44165;SDS011;30476;53.468;9.826;2023-07-16T04:16:39;0.60;;;0.60;;
44165;SDS011;30476;53.468;9.826;2023-07-16T04:19:04;0.90;;;0.80;;
44165;SDS011;30476;53.468;9.826;2023-07-16T04:21:30;0.70;;;0.60;;
44165;SDS011;30476;53.468;9.826;2023-07-16T04:23:56;0.70;;;0.70;;
44165;SDS011;30476;53.468;9.826;2023-07-16T04:26:22;0.77;;;0.77;;
44165;SDS011;30476;53.468;9.826;2023-07-16T04:28:48;0.70;;;0.70;;
44165;SDS011;30476;53.468;9.826;2023-07-16T04:31:14;1.20;;;0.93;;
44165;SDS011;30476;53.468;9.826;2023-07-16T04:33:40;2.07;;;0.90;;
44165;SDS011;30476;53.468;9.826;2023-07-16T04:36:06;0.60;;;0.60;;
44165;SDS011;30476;53.468;9.826;2023-07-16T04:38:31;0.83;;;0.83;;
44165;SDS011;30476;53.468;9.826;2023-07-16T04:40:57;0.93;;;0.90;;
44165;SDS011;30476;53.468;9.826;2023-07-16T04:43:23;0.93;;;0.83;;
44165;SDS011;30476;53.468;9.826;2023-07-16T04:45:49;1.13;;;0.90;;
44165;SDS011;30476;53.468;9.826;2023-07-16T04:48:14;0.90;;;0.80;;
44165;SDS011;30476;53.468;9.826;2023-07-16T04:50:40;1.23;;;0.90;;
44165;SDS011;30476;53.468;9.826;2023-07-16T04:53:06;1.17;;;0.83;;
44165;SDS011;30476;53.468;9.826;2023-07-16T04:55:38;0.60;;;0.60;;
44165;SDS011;30476;53.468;9.826;2023-07-16T04:58:04;0.60;;;0.60;;
44165;SDS011;30476;53.468;9.826;2023-07-16T05:00:31;0.93;;;0.70;;
44165;SDS011;30476;53.468;9.826;2023-07-16T05:02:58;1.10;;;1.00;;
44165;SDS011;30476;53.468;9.826;2023-07-16T05:05:24;0.70;;;0.67;;
44165;SDS011;30476;53.468;9.826;2023-07-16T05:07:50;0.93;;;0.60;;
44165;SDS011;30476;53.468;9.826;2023-07-16T05:10:16;2.37;;;0.73;;
44165;SDS011;30476;53.468;9.826;2023-07-16T05:12:41;0.60;;;0.60;;
44165;SDS011;30476;53.468;9.826;2023-07-16T05:15:07;0.60;;;0.60;;
44165;SDS011;30476;53.468;9.826;2023-07-16T05:17:33;1.40;;;1.00;;
44165;SDS011;30476;53.468;9.826;2023-07-16T05:19:59;0.80;;;0.70;;
44165;SDS011;30476;53.468;9.826;2023-07-16T05:22:25;0.70;;;0.70;;
44165;SDS011;30476;53.468;9.826;2023-07-16T05:24:51;0.73;;;0.70;;
44165;SDS011;30476;53.468;9.826;2023-07-16T05:27:16;0.93;;;0.70;;
44165;SDS011;30476;53.468;9.826;2023-07-16T05:29:42;0.60;;;0.60;;
44165;SDS011;30476;53.468;9.826;2023-07-16T05:32:08;3.17;;;0.90;;
44165;SDS011;30476;53.468;9.826;2023-07-16T05:34:34;0.67;;;0.67;;
44165;SDS011;30476;53.468;9.826;2023-07-16T05:36:59;0.53;;;0.53;;
44165;SDS011;30476;53.468;9.826;2023-07-16T05:39:25;1.30;;;0.87;;
44165;SDS011;30476;53.468;9.826;2023-07-16T05:41:51;0.80;;;0.80;;
44165;SDS011;30476;53.468;9.826;2023-07-16T05:44:17;1.83;;;0.67;;
44165;SDS011;30476;53.468;9.826;2023-07-16T05:46:42;0.97;;;0.80;;
44165;SDS011;30476;53.468;9.826;2023-07-16T05:49:08;1.90;;;0.80;;
44165;SDS011;30476;53.468;9.826;2023-07-16T05:51:34;1.50;;;0.90;;
44165;SDS011;30476;53.468;9.826;2023-07-16T05:54:00;3.03;;;1.20;;
44165;SDS011;30476;53.468;9.826;2023-07-16T05:56:25;0.67;;;0.67;;
44165;SDS011;30476;53.468;9.826;2023-07-16T05:58:51;0.90;;;0.80;;
44165;SDS011;30476;53.468;9.826;2023-07-16T06:01:17;1.47;;;0.70;;
44165;SDS011;30476;53.468;9.826;2023-07-16T06:03:43;1.00;;;0.80;;
44165;SDS011;30476;53.468;9.826;2023-07-16T06:06:09;0.80;;;0.70;;
44165;SDS011;30476;53.468;9.826;2023-07-16T06:08:35;0.70;;;0.70;;
44165;SDS011;30476;53.468;9.826;2023-07-16T06:11:00;2.10;;;0.97;;
44165;SDS011;30476;53.468;9.826;2023-07-16T06:13:26;1.50;;;0.70;;
44165;SDS011;30476;53.468;9.826;2023-07-16T06:15:52;0.70;;;0.63;;
44165;SDS011;30476;53.468;9.826;2023-07-16T06:18:18;1.50;;;0.70;;
44165;SDS011;30476;53.468;9.826;2023-07-16T06:20:44;1.40;;;0.60;;
44165;SDS011;30476;53.468;9.826;2023-07-16T06:23:11;1.33;;;0.77;;
44165;SDS011;30476;53.468;9.826;2023-07-16T06:25:37;0.70;;;0.70;;
44165;SDS011;30476;53.468;9.826;2023-07-16T06:28:05;0.60;;;0.60;;
44165;SDS011;30476;53.468;9.826;2023-07-16T06:30:31;1.10;;;0.80;;
44165;SDS011;30476;53.468;9.826;2023-07-16T06:32:59;0.87;;;0.87;;
44165;SDS011;30476;53.468;9.826;2023-07-16T06:35:24;0.80;;;0.80;;
44165;SDS011;30476;53.468;9.826;2023-07-16T06:37:50;2.20;;;1.03;;
44165;SDS011;30476;53.468;9.826;2023-07-16T06:40:16;1.20;;;1.07;;
44165;SDS011;30476;53.468;9.826;2023-07-16T06:42:42;1.50;;;1.00;;
44165;SDS011;30476;53.468;9.826;2023-07-16T06:45:08;1.80;;;0.80;;
44165;SDS011;30476;53.468;9.826;2023-07-16T06:47:34;1.00;;;0.80;;
44165;SDS011;30476;53.468;9.826;2023-07-16T06:49:59;2.33;;;0.80;;
44165;SDS011;30476;53.468;9.826;2023-07-16T06:52:25;1.20;;;1.13;;
44165;SDS011;30476;53.468;9.826;2023-07-16T06:54:53;3.13;;;1.10;;
44165;SDS011;30476;53.468;9.826;2023-07-16T06:57:19;1.27;;;1.00;;
44165;SDS011;30476;53.468;9.826;2023-07-16T06:59:45;1.27;;;0.80;;
44165;SDS011;30476;53.468;9.826;2023-07-16T07:02:11;1.77;;;1.07;;
44165;SDS011;30476;53.468;9.826;2023-07-16T07:04:37;1.10;;;1.00;;
44165;SDS011;30476;53.468;9.826;2023-07-16T07:07:03;1.03;;;0.80;;
44165;SDS011;30476;53.468;9.826;2023-07-16T07:09:29;2.93;;;0.83;;
44165;SDS011;30476;53.468;9.826;2023-07-16T07:11:55;0.87;;;0.83;;
44165;SDS011;30476;53.468;9.826;2023-07-16T07:14:21;0.80;;;0.80;;
44165;SDS011;30476;53.468;9.826;2023-07-16T07:16:46;1.73;;;0.80;;
44165;SDS011;30476;53.468;9.826;2023-07-16T07:19:12;1.00;;;0.90;;
44165;SDS011;30476;53.468;9.826;2023-07-16T07:21:38;1.20;;;1.10;;
44165;SDS011;30476;53.468;9.826;2023-07-16T07:24:05;1.20;;;1.10;;
44165;SDS011;30476;53.468;9.826;2023-07-16T07:26:30;1.17;;;1.00;;
44165;SDS011;30476;53.468;9.826;2023-07-16T07:28:56;0.80;;;0.73;;
44165;SDS011;30476;53.468;9.826;2023-07-16T07:31:22;1.00;;;0.90;;
44165;SDS011;30476;53.468;9.826;2023-07-16T07:33:48;1.73;;;0.90;;
44165;SDS011;30476;53.468;9.826;2023-07-16T07:36:13;1.80;;;0.83;;
44165;SDS011;30476;53.468;9.826;2023-07-16T07:38:39;0.90;;;0.80;;
44165;SDS011;30476;53.468;9.826;2023-07-16T07:41:05;0.77;;;0.77;;
44165;SDS011;30476;53.468;9.826;2023-07-16T07:43:31;0.80;;;0.80;;
44165;SDS011;30476;53.468;9.826;2023-07-16T07:45:57;2.00;;;1.00;;
44165;SDS011;30476;53.468;9.826;2023-07-16T07:48:23;0.70;;;0.70;;
44165;SDS011;30476;53.468;9.826;2023-07-16T07:50:49;2.10;;;1.30;;
44165;SDS011;30476;53.468;9.826;2023-07-16T07:53:16;0.80;;;0.80;;
44165;SDS011;30476;53.468;9.826;2023-07-16T07:55:43;1.53;;;0.90;;
44165;SDS011;30476;53.468;9.826;2023-07-16T07:58:09;1.97;;;0.70;;
44165;SDS011;30476;53.468;9.826;2023-07-16T08:00:35;1.00;;;1.00;;
44165;SDS011;30476;53.468;9.826;2023-07-16T08:03:01;1.13;;;0.80;;
44165;SDS011;30476;53.468;9.826;2023-07-16T08:05:27;2.07;;;0.90;;
44165;SDS011;30476;53.468;9.826;2023-07-16T08:07:52;0.80;;;0.80;;
44165;SDS011;30476;53.468;9.826;2023-07-16T08:10:18;0.70;;;0.70;;
44165;SDS011;30476;53.468;9.826;2023-07-16T08:12:44;1.20;;;0.77;;
44165;SDS011;30476;53.468;9.826;2023-07-16T08:15:10;0.70;;;0.70;;
44165;SDS011;30476;53.468;9.826;2023-07-16T08:17:43;0.70;;;0.70;;
44165;SDS011;30476;53.468;9.826;2023-07-16T08:20:10;1.00;;;0.90;;
44165;SDS011;30476;53.468;9.826;2023-07-16T08:22:36;0.90;;;0.70;;
44165;SDS011;30476;53.468;9.826;2023-07-16T08:25:03;0.83;;;0.83;;
44165;SDS011;30476;53.468;9.826;2023-07-16T08:27:30;0.80;;;0.80;;
44165;SDS011;30476;53.468;9.826;2023-07-16T08:29:56;0.90;;;0.87;;
44165;SDS011;30476;53.468;9.826;2023-07-16T08:32:22;0.80;;;0.80;;
44165;SDS011;30476;53.468;9.826;2023-07-16T08:34:48;1.80;;;0.83;;
44165;SDS011;30476;53.468;9.826;2023-07-16T08:37:14;3.80;;;1.40;;
44165;SDS011;30476;53.468;9.826;2023-07-16T08:39:40;1.40;;;1.30;;
44165;SDS011;30476;53.468;9.826;2023-07-16T08:42:06;4.20;;;1.20;;
44165;SDS011;30476;53.468;9.826;2023-07-16T08:44:35;1.37;;;1.27;;
44165;SDS011;30476;53.468;9.826;2023-07-16T08:47:03;2.77;;;1.20;;
44165;SDS011;30476;53.468;9.826;2023-07-16T08:49:30;1.30;;;1.20;;
44165;SDS011;30476;53.468;9.826;2023-07-16T08:51:58;1.40;;;1.30;;
44165;SDS011;30476;53.468;9.826;2023-07-16T08:54:26;1.63;;;1.50;;
44165;SDS011;30476;53.468;9.826;2023-07-16T08:56:52;2.20;;;1.50;;
44165;SDS011;30476;53.468;9.826;2023-07-16T08:59:18;1.30;;;1.30;;
44165;SDS011;30476;53.468;9.826;2023-07-16T09:01:45;2.60;;;1.70;;
44165;SDS011;30476;53.468;9.826;2023-07-16T09:04:13;1.37;;;1.27;;
44165;SDS011;30476;53.468;9.826;2023-07-16T09:06:39;1.30;;;1.20;;
44165;SDS011;30476;53.468;9.826;2023-07-16T09:09:05;1.57;;;1.47;;
44165;SDS011;30476;53.468;9.826;2023-07-16T09:11:30;1.60;;;1.50;;
44165;SDS011;30476;53.468;9.826;2023-07-16T09:13:56;1.33;;;1.20;;
44165;SDS011;30476;53.468;9.826;2023-07-16T09:16:22;1.10;;;1.00;;
44165;SDS011;30476;53.468;9.826;2023-07-16T09:18:48;1.00;;;1.00;;
44165;SDS011;30476;53.468;9.826;2023-07-16T09:21:13;1.40;;;1.30;;
44165;SDS011;30476;53.468;9.826;2023-07-16T09:23:39;1.53;;;1.43;;
44165;SDS011;30476;53.468;9.826;2023-07-16T09:26:07;1.80;;;1.10;;
44165;SDS011;30476;53.468;9.826;2023-07-16T09:28:33;1.57;;;1.40;;
44165;SDS011;30476;53.468;9.826;2023-07-16T09:31:06;1.70;;;1.60;;
44165;SDS011;30476;53.468;9.826;2023-07-16T09:33:32;2.17;;;1.33;;
44165;SDS011;30476;53.468;9.826;2023-07-16T09:35:59;1.30;;;1.20;;
44165;SDS011;30476;53.468;9.826;2023-07-16T09:38:25;1.30;;;1.20;;
44165;SDS011;30476;53.468;9.826;2023-07-16T09:40:52;1.50;;;1.23;;
44165;SDS011;30476;53.468;9.826;2023-07-16T09:43:20;1.50;;;1.30;;
44165;SDS011;30476;53.468;9.826;2023-07-16T09:45:47;1.30;;;1.20;;
44165;SDS011;30476;53.468;9.826;2023-07-16T09:48:14;1.37;;;1.27;;
44165;SDS011;30476;53.468;9.826;2023-07-16T09:50:42;1.83;;;1.30;;
44165;SDS011;30476;53.468;9.826;2023-07-16T09:53:15;1.53;;;1.00;;
44165;SDS011;30476;53.468;9.826;2023-07-16T09:55:43;1.40;;;1.00;;
44165;SDS011;30476;53.468;9.826;2023-07-16T09:58:10;1.30;;;1.20;;
44165;SDS011;30476;53.468;9.826;2023-07-16T10:00:37;1.40;;;1.30;;
44165;SDS011;30476;53.468;9.826;2023-07-16T10:03:05;1.33;;;1.10;;
44165;SDS011;30476;53.468;9.826;2023-07-16T10:05:35;1.17;;;0.90;;
44165;SDS011;30476;53.468;9.826;2023-07-16T10:08:02;1.27;;;1.10;;
44165;SDS011;30476;53.468;9.826;2023-07-16T10:10:38;1.13;;;1.07;;
44165;SDS011;30476;53.468;9.826;2023-07-16T10:13:08;1.70;;;1.10;;
44165;SDS011;30476;53.468;9.826;2023-07-16T10:15:38;1.30;;;1.20;;
44165;SDS011;30476;53.468;9.826;2023-07-16T10:18:05;2.20;;;1.20;;
44165;SDS011;30476;53.468;9.826;2023-07-16T10:20:31;1.63;;;1.10;;
44165;SDS011;30476;53.468;9.826;2023-07-16T10:23:09;2.13;;;1.20;;
44165;SDS011;30476;53.468;9.826;2023-07-16T10:25:39;1.10;;;1.00;;
44165;SDS011;30476;53.468;9.826;2023-07-16T10:28:06;4.40;;;1.03;;
44165;SDS011;30476;53.468;9.826;2023-07-16T10:30:32;0.80;;;0.80;;
44165;SDS011;30476;53.468;9.826;2023-07-16T10:33:02;1.60;;;1.10;;
44165;SDS011;30476;53.468;9.826;2023-07-16T10:35:34;3.07;;;1.17;;
44165;SDS011;30476;53.468;9.826;2023-07-16T10:38:01;1.27;;;1.17;;
44165;SDS011;30476;53.468;9.826;2023-07-16T10:40:26;1.30;;;1.20;;
44165;SDS011;30476;53.468;9.826;2023-07-16T10:42:52;1.10;;;1.07;;
44165;SDS011;30476;53.468;9.826;2023-07-16T10:45:18;1.40;;;1.30;;
44165;SDS011;30476;53.468;9.826;2023-07-16T10:47:52;0.97;;;0.97;;
44165;SDS011;30476;53.468;9.826;2023-07-16T10:50:19;2.00;;;1.17;;
44165;SDS011;30476;53.468;9.826;2023-07-16T10:52:55;1.30;;;1.20;;
44165;SDS011;30476;53.468;9.826;2023-07-16T10:55:22;2.47;;;1.43;;
44165;SDS011;30476;53.468;9.826;2023-07-16T10:57:48;1.03;;;0.97;;
44165;SDS011;30476;53.468;9.826;2023-07-16T11:00:15;1.30;;;1.20;;
44165;SDS011;30476;53.468;9.826;2023-07-16T11:02:42;0.90;;;0.90;;
44165;SDS011;30476;53.468;9.826;2023-07-16T11:05:12;1.30;;;1.20;;
44165;SDS011;30476;53.468;9.826;2023-07-16T11:07:43;1.50;;;1.40;;
44165;SDS011;30476;53.468;9.826;2023-07-16T11:10:09;2.60;;;1.30;;
44165;SDS011;30476;53.468;9.826;2023-07-16T11:12:36;2.03;;;1.10;;
44165;SDS011;30476;53.468;9.826;2023-07-16T11:15:02;1.00;;;1.00;;
44165;SDS011;30476;53.468;9.826;2023-07-16T11:17:28;1.13;;;1.03;;
44165;SDS011;30476;53.468;9.826;2023-07-16T11:19:54;2.30;;;1.00;;
44165;SDS011;30476;53.468;9.826;2023-07-16T11:22:24;1.30;;;1.00;;
44165;SDS011;30476;53.468;9.826;2023-07-16T11:24:52;1.00;;;0.83;;
44165;SDS011;30476;53.468;9.826;2023-07-16T11:27:22;1.17;;;1.07;;
44165;SDS011;30476;53.468;9.826;2023-07-16T11:29:53;1.30;;;1.20;;
44165;SDS011;30476;53.468;9.826;2023-07-16T11:32:30;2.47;;;1.43;;
44165;SDS011;30476;53.468;9.826;2023-07-16T11:34:57;2.17;;;1.60;;
44165;SDS011;30476;53.468;9.826;2023-07-16T11:37:27;1.70;;;1.20;;
44165;SDS011;30476;53.468;9.826;2023-07-16T11:39:57;3.97;;;1.70;;
44165;SDS011;30476;53.468;9.826;2023-07-16T11:42:27;1.43;;;1.33;;
44165;SDS011;30476;53.468;9.826;2023-07-16T11:44:54;2.17;;;1.83;;
44165;SDS011;30476;53.468;9.826;2023-07-16T11:47:20;1.00;;;1.00;;
44165;SDS011;30476;53.468;9.826;2023-07-16T11:49:47;1.43;;;1.33;;
44165;SDS011;30476;53.468;9.826;2023-07-16T11:52:13;1.33;;;1.23;;
44165;SDS011;30476;53.468;9.826;2023-07-16T11:54:39;0.80;;;0.80;;
44165;SDS011;30476;53.468;9.826;2023-07-16T11:57:05;0.90;;;0.90;;
44165;SDS011;30476;53.468;9.826;2023-07-16T11:59:31;2.60;;;1.40;;
44165;SDS011;30476;53.468;9.826;2023-07-16T12:01:57;1.10;;;1.00;;
44165;SDS011;30476;53.468;9.826;2023-07-16T12:04:23;1.37;;;1.10;;
44165;SDS011;30476;53.468;9.826;2023-07-16T12:06:49;0.90;;;0.90;;
44165;SDS011;30476;53.468;9.826;2023-07-16T12:09:14;2.80;;;1.07;;
44165;SDS011;30476;53.468;9.826;2023-07-16T12:11:40;1.27;;;0.77;;
44165;SDS011;30476;53.468;9.826;2023-07-16T12:14:06;1.00;;;1.00;;
44165;SDS011;30476;53.468;9.826;2023-07-16T12:16:32;1.30;;;1.13;;
44165;SDS011;30476;53.468;9.826;2023-07-16T12:18:58;1.70;;;1.07;;
44165;SDS011;30476;53.468;9.826;2023-07-16T12:21:23;0.93;;;0.93;;
44165;SDS011;30476;53.468;9.826;2023-07-16T12:23:49;1.20;;;1.00;;
44165;SDS011;30476;53.468;9.826;2023-07-16T12:26:15;0.90;;;0.90;;
44165;SDS011;30476;53.468;9.826;2023-07-16T12:28:40;2.50;;;1.13;;
44165;SDS011;30476;53.468;9.826;2023-07-16T12:31:06;1.03;;;0.83;;
44165;SDS011;30476;53.468;9.826;2023-07-16T12:33:32;0.90;;;0.83;;
44165;SDS011;30476;53.468;9.826;2023-07-16T12:35:58;1.10;;;1.00;;
44165;SDS011;30476;53.468;9.826;2023-07-16T12:38:23;1.33;;;0.80;;
44165;SDS011;30476;53.468;9.826;2023-07-16T12:40:49;1.10;;;1.00;;
44165;SDS011;30476;53.468;9.826;2023-07-16T12:43:15;0.93;;;0.90;;
44165;SDS011;30476;53.468;9.826;2023-07-16T12:45:41;0.77;;;0.77;;
44165;SDS011;30476;53.468;9.826;2023-07-16T12:48:06;0.80;;;0.80;;
44165;SDS011;30476;53.468;9.826;2023-07-16T12:50:32;0.90;;;0.90;;
44165;SDS011;30476;53.468;9.826;2023-07-16T12:52:58;0.90;;;0.90;;
44165;SDS011;30476;53.468;9.826;2023-07-16T12:55:24;0.80;;;0.80;;
44165;SDS011;30476;53.468;9.826;2023-07-16T12:57:50;1.10;;;0.87;;
44165;SDS011;30476;53.468;9.826;2023-07-16T13:00:16;1.87;;;1.20;;
44165;SDS011;30476;53.468;9.826;2023-07-16T13:02:41;0.97;;;0.97;;
44165;SDS011;30476;53.468;9.826;2023-07-16T13:05:07;1.03;;;0.93;;
44165;SDS011;30476;53.468;9.826;2023-07-16T13:07:33;0.80;;;0.80;;
44165;SDS011;30476;53.468;9.826;2023-07-16T13:09:59;0.80;;;0.70;;
44165;SDS011;30476;53.468;9.826;2023-07-16T13:12:25;1.03;;;1.00;;
44165;SDS011;30476;53.468;9.826;2023-07-16T13:14:51;0.70;;;0.70;;
44165;SDS011;30476;53.468;9.826;2023-07-16T13:17:16;0.80;;;0.80;;
44165;SDS011;30476;53.468;9.826;2023-07-16T13:19:44;1.10;;;1.00;;
44165;SDS011;30476;53.468;9.826;2023-07-16T13:22:10;1.23;;;0.73;;
44165;SDS011;30476;53.468;9.826;2023-07-16T13:24:36;3.60;;;0.90;;
44165;SDS011;30476;53.468;9.826;2023-07-16T13:27:02;1.20;;;1.10;;
44165;SDS011;30476;53.468;9.826;2023-07-16T13:29:28;0.73;;;0.70;;
44165;SDS011;30476;53.468;9.826;2023-07-16T13:31:54;0.90;;;0.90;;
44165;SDS011;30476;53.468;9.826;2023-07-16T13:34:19;0.70;;;0.70;;
44165;SDS011;30476;53.468;9.826;2023-07-16T13:36:45;1.20;;;1.10;;
44165;SDS011;30476;53.468;9.826;2023-07-16T13:39:11;1.87;;;0.90;;
44165;SDS011;30476;53.468;9.826;2023-07-16T13:41:38;1.17;;;0.90;;
44165;SDS011;30476;53.468;9.826;2023-07-16T13:44:05;1.27;;;1.00;;
44165;SDS011;30476;53.468;9.826;2023-07-16T13:46:30;1.20;;;1.10;;
44165;SDS011;30476;53.468;9.826;2023-07-16T13:48:56;0.83;;;0.83;;
44165;SDS011;30476;53.468;9.826;2023-07-16T13:51:22;0.83;;;0.83;;
44165;SDS011;30476;53.468;9.826;2023-07-16T13:53:48;1.47;;;1.00;;
44165;SDS011;30476;53.468;9.826;2023-07-16T13:56:14;1.30;;;0.70;;
44165;SDS011;30476;53.468;9.826;2023-07-16T13:58:40;1.20;;;1.10;;
44165;SDS011;30476;53.468;9.826;2023-07-16T14:01:06;0.93;;;0.93;;
44165;SDS011;30476;53.468;9.826;2023-07-16T14:03:31;1.10;;;0.90;;
44165;SDS011;30476;53.468;9.826;2023-07-16T14:05:57;0.80;;;0.80;;
44165;SDS011;30476;53.468;9.826;2023-07-16T14:08:23;1.33;;;0.90;;
44165;SDS011;30476;53.468;9.826;2023-07-16T14:10:49;1.13;;;0.97;;
44165;SDS011;30476;53.468;9.826;2023-07-16T14:13:14;0.93;;;0.93;;
44165;SDS011;30476;53.468;9.826;2023-07-16T14:15:41;1.07;;;1.00;;
44165;SDS011;30476;53.468;9.826;2023-07-16T14:18:07;1.17;;;0.80;;
44165;SDS011;30476;53.468;9.826;2023-07-16T14:20:33;2.10;;;0.77;;
44165;SDS011;30476;53.468;9.826;2023-07-16T14:22:59;0.80;;;0.70;;
44165;SDS011;30476;53.468;9.826;2023-07-16T14:25:25;0.80;;;0.80;;
44165;SDS011;30476;53.468;9.826;2023-07-16T14:27:50;1.10;;;1.10;;
44165;SDS011;30476;53.468;9.826;2023-07-16T14:30:16;0.90;;;0.70;;
44165;SDS011;30476;53.468;9.826;2023-07-16T14:32:42;1.00;;;0.90;;
44165;SDS011;30476;53.468;9.826;2023-07-16T14:35:08;1.17;;;1.07;;
44165;SDS011;30476;53.468;9.826;2023-07-16T14:37:34;1.10;;;0.90;;
44165;SDS011;30476;53.468;9.826;2023-07-16T14:40:00;1.17;;;1.00;;
44165;SDS011;30476;53.468;9.826;2023-07-16T14:42:26;1.27;;;1.00;;
44165;SDS011;30476;53.468;9.826;2023-07-16T14:44:51;0.70;;;0.70;;
44165;SDS011;30476;53.468;9.826;2023-07-16T14:47:17;1.40;;;0.97;;
44165;SDS011;30476;53.468;9.826;2023-07-16T14:49:43;1.73;;;1.00;;
44165;SDS011;30476;53.468;9.826;2023-07-16T14:52:09;0.90;;;0.90;;